createdAt,value
2018-09-03T00:02:10.068Z,9.40
2018-09-03T00:04:38.968Z,9.60
2018-09-03T00:07:08.071Z,10.27
2018-09-03T00:09:40.617Z,9.40
2018-09-03T00:12:10.099Z,10.70
2018-09-03T00:14:39.451Z,9.70
2018-09-03T00:17:08.942Z,10.10
2018-09-03T00:19:38.085Z,11.00
2018-09-03T00:22:07.171Z,10.00
2018-09-03T00:24:36.235Z,9.80
2018-09-03T00:27:05.102Z,10.77
2018-09-03T00:29:34.175Z,9.90
2018-09-03T00:32:08.231Z,9.53
2018-09-03T00:34:42.426Z,10.10
2018-09-03T00:39:20.712Z,10.37
2018-09-03T00:41:54.767Z,9.93
2018-09-03T00:44:29.191Z,10.40
2018-09-03T00:47:02.552Z,9.70
2018-09-03T00:49:32.101Z,9.70
2018-09-03T00:52:01.460Z,10.17
2018-09-03T00:54:30.401Z,11.10
2018-09-03T00:56:59.611Z,10.60
2018-09-03T00:59:28.488Z,10.77
2018-09-03T01:01:57.615Z,9.97
2018-09-03T01:04:33.522Z,9.97
2018-09-03T01:07:02.537Z,10.33
2018-09-03T01:09:31.346Z,9.67
2018-09-03T01:12:00.314Z,9.57
2018-09-03T01:14:29.214Z,10.10
2018-09-03T01:16:58.044Z,10.33
2018-09-03T01:19:26.983Z,10.30
2018-09-03T01:21:55.885Z,12.37
2018-09-03T01:24:24.824Z,11.20
2018-09-03T01:26:53.630Z,10.30
2018-09-03T01:29:22.546Z,10.73
2018-09-03T01:31:55.340Z,9.90
2018-09-03T01:34:25.477Z,11.00
2018-09-03T01:36:54.748Z,9.90
2018-09-03T01:39:23.644Z,10.80
2018-09-03T01:41:52.532Z,11.07
2018-09-03T01:44:21.309Z,10.60
2018-09-03T01:46:50.055Z,11.10
2018-09-03T01:49:18.972Z,10.57
2018-09-03T01:51:47.820Z,9.70
2018-09-03T01:54:16.700Z,10.73
2018-09-03T01:56:45.668Z,10.50
2018-09-03T01:59:14.430Z,10.60
2018-09-03T02:01:43.875Z,10.87
2018-09-03T02:04:12.761Z,10.30
2018-09-03T02:06:42.239Z,10.77
2018-09-03T02:09:12.580Z,10.57
2018-09-03T02:11:42.264Z,10.90
2018-09-03T02:14:11.166Z,11.27
2018-09-03T02:16:40.316Z,12.03
2018-09-03T02:19:09.507Z,10.30
2018-09-03T02:21:38.455Z,11.70
2018-09-03T02:24:07.675Z,11.33
2018-09-03T02:26:36.454Z,11.47
2018-09-03T02:29:05.286Z,11.20
2018-09-03T02:31:34.520Z,11.80
2018-09-03T02:34:03.539Z,10.53
2018-09-03T02:36:32.628Z,10.93
2018-09-03T02:39:01.755Z,12.00
2018-09-03T02:41:30.816Z,10.83
2018-09-03T02:43:59.644Z,11.83
2018-09-03T02:46:28.576Z,10.90
2018-09-03T02:48:57.407Z,11.80
2018-09-03T02:51:26.114Z,11.40
2018-09-03T02:53:54.977Z,11.57
2018-09-03T02:56:23.684Z,11.63
2018-09-03T02:58:52.779Z,11.00
2018-09-03T03:01:22.585Z,12.00
2018-09-03T03:03:51.480Z,10.90
2018-09-03T03:06:20.702Z,12.37
2018-09-03T03:08:49.567Z,11.73
2018-09-03T03:11:18.524Z,12.50
2018-09-03T03:13:47.831Z,12.50
2018-09-03T03:16:16.729Z,12.73
2018-09-03T03:18:45.670Z,10.83
2018-09-03T03:21:14.721Z,11.43
2018-09-03T03:23:44.019Z,12.13
2018-09-03T03:26:13.403Z,12.17
2018-09-03T03:28:42.408Z,12.37
2018-09-03T03:31:11.500Z,11.50
2018-09-03T03:33:47.134Z,12.00
2018-09-03T03:36:16.073Z,11.60
2018-09-03T03:38:44.941Z,11.47
2018-09-03T03:41:14.027Z,11.80
2018-09-03T03:43:42.836Z,11.37
2018-09-03T03:46:12.230Z,11.97
2018-09-03T03:48:41.338Z,11.50
2018-09-03T03:51:10.193Z,12.10
2018-09-03T03:53:39.300Z,11.73
2018-09-03T03:56:08.510Z,11.50
2018-09-03T03:58:37.284Z,11.33
2018-09-03T04:04:01.907Z,11.70
2018-09-03T04:06:30.776Z,12.20
2018-09-03T04:09:00.134Z,10.67
2018-09-03T04:11:28.991Z,12.47
2018-09-03T04:13:58.289Z,11.27
2018-09-03T04:16:27.030Z,12.57
2018-09-03T04:18:56.063Z,11.73
2018-09-03T04:21:24.954Z,12.27
2018-09-03T04:23:54.248Z,11.53
2018-09-03T04:26:23.560Z,12.23
2018-09-03T04:28:52.730Z,11.30
2018-09-03T04:31:21.443Z,11.53
2018-09-03T04:33:50.226Z,12.10
2018-09-03T04:36:19.371Z,11.50
2018-09-03T04:38:48.202Z,10.80
2018-09-03T04:41:17.304Z,11.43
2018-09-03T04:43:46.240Z,12.47
2018-09-03T04:46:14.972Z,12.80
2018-09-03T04:48:43.684Z,10.37
2018-09-03T04:51:12.721Z,11.10
2018-09-03T04:53:41.735Z,11.70
2018-09-03T04:56:10.839Z,11.50
2018-09-03T04:58:39.943Z,11.53
2018-09-03T05:01:09.057Z,11.30
2018-09-03T05:03:37.888Z,12.00
2018-09-03T05:06:07.288Z,11.50
2018-09-03T05:08:36.039Z,12.40
2018-09-03T05:11:05.026Z,11.03
2018-09-03T05:13:33.929Z,11.77
2018-09-03T05:16:02.796Z,11.73
2018-09-03T05:18:31.688Z,11.47
2018-09-03T05:21:00.589Z,11.50
2018-09-03T05:23:29.853Z,11.63
2018-09-03T05:25:59.395Z,11.10
2018-09-03T05:28:28.489Z,10.97
2018-09-03T05:30:57.457Z,10.60
2018-09-03T05:33:26.464Z,11.60
2018-09-03T05:35:56.060Z,11.90
2018-09-03T05:38:25.246Z,10.20
2018-09-03T05:40:54.170Z,11.83
2018-09-03T05:43:23.498Z,11.27
2018-09-03T05:45:52.156Z,10.43
2018-09-03T05:48:21.143Z,11.10
2018-09-03T05:50:50.142Z,11.60
2018-09-03T05:53:19.042Z,10.67
2018-09-03T05:55:48.097Z,11.27
2018-09-03T05:58:17.222Z,11.30
2018-09-03T06:00:46.321Z,10.63
2018-09-03T06:03:15.100Z,10.87
2018-09-03T06:05:44.021Z,11.87
2018-09-03T06:08:12.957Z,11.43
2018-09-03T06:10:42.178Z,12.17
2018-09-03T06:13:10.968Z,11.23
2018-09-03T06:15:40.118Z,10.63
2018-09-03T06:18:09.309Z,11.63
2018-09-03T06:20:38.255Z,12.03
2018-09-03T06:23:07.316Z,11.60
2018-09-03T06:25:36.455Z,11.47
2018-09-03T06:28:05.550Z,10.53
2018-09-03T06:30:34.508Z,12.00
2018-09-03T06:33:03.708Z,11.40
2018-09-03T06:35:32.733Z,11.27
2018-09-03T06:38:01.600Z,12.53
2018-09-03T06:40:30.712Z,11.90
2018-09-03T06:42:59.721Z,11.53
2018-09-03T06:45:29.114Z,11.20
2018-09-03T06:47:58.179Z,11.70
2018-09-03T06:50:27.491Z,11.33
2018-09-03T06:52:56.596Z,11.30
2018-09-03T06:55:25.806Z,10.93
2018-09-03T06:57:55.390Z,11.50
2018-09-03T07:00:24.292Z,11.67
2018-09-03T07:02:53.187Z,12.77
2018-09-03T07:05:22.154Z,11.10
2018-09-03T07:07:51.116Z,12.07
2018-09-03T07:10:20.125Z,11.70
2018-09-03T07:12:49.369Z,12.00
2018-09-03T07:15:18.467Z,12.47
2018-09-03T07:17:47.402Z,11.70
2018-09-03T07:20:16.318Z,11.47
2018-09-03T07:22:45.404Z,10.80
2018-09-03T07:25:14.193Z,12.30
2018-09-03T07:27:43.527Z,11.27
2018-09-03T07:30:12.578Z,11.60
2018-09-03T07:32:41.500Z,11.40
2018-09-03T07:35:10.580Z,12.13
2018-09-03T07:37:39.651Z,11.57
2018-09-03T07:40:09.209Z,11.97
2018-09-03T07:42:38.697Z,11.77
2018-09-03T07:45:07.588Z,10.60
2018-09-03T07:47:36.459Z,12.30
2018-09-03T07:50:06.610Z,11.60
2018-09-03T07:52:35.396Z,10.77
2018-09-03T07:55:04.817Z,12.43
2018-09-03T07:57:33.897Z,11.87
2018-09-03T08:00:02.798Z,11.90
2018-09-03T08:02:31.748Z,12.50
2018-09-03T08:05:01.805Z,12.90
2018-09-03T08:07:30.849Z,11.73
2018-09-03T08:09:59.794Z,11.73
2018-09-03T08:12:28.883Z,12.30
2018-09-03T08:14:57.985Z,11.90
2018-09-03T08:17:27.489Z,11.37
2018-09-03T08:19:56.614Z,11.90
2018-09-03T08:22:25.521Z,11.93
2018-09-03T08:24:55.185Z,11.20
2018-09-03T08:27:24.280Z,12.40
2018-09-03T08:29:53.131Z,14.77
2018-09-03T08:32:22.476Z,11.67
2018-09-03T08:34:51.567Z,12.20
2018-09-03T08:37:20.449Z,11.90
2018-09-03T08:39:49.249Z,12.27
2018-09-03T08:42:18.055Z,11.70
2018-09-03T08:44:47.018Z,11.67
2018-09-03T08:47:15.937Z,11.87
2018-09-03T08:49:44.917Z,12.47
2018-09-03T08:52:13.801Z,11.90
2018-09-03T08:54:42.686Z,11.20
2018-09-03T08:57:11.964Z,11.40
2018-09-03T08:59:40.828Z,12.30
2018-09-03T09:02:10.184Z,11.87
2018-09-03T09:04:39.278Z,12.37
2018-09-03T09:07:08.364Z,11.07
2018-09-03T09:09:37.552Z,11.77
2018-09-03T09:12:06.543Z,11.53
2018-09-03T09:14:35.426Z,11.27
2018-09-03T09:17:04.913Z,11.70
2018-09-03T09:19:34.203Z,11.30
2018-09-03T09:22:03.120Z,10.90
2018-09-03T09:24:32.070Z,12.30
2018-09-03T09:27:01.169Z,12.03
2018-09-03T09:29:30.177Z,12.33
2018-09-03T09:31:59.125Z,12.90
2018-09-03T09:34:27.893Z,11.70
2018-09-03T09:36:56.860Z,13.27
2018-09-03T09:39:25.989Z,11.40
2018-09-03T09:41:55.094Z,12.20
2018-09-03T09:44:23.905Z,11.93
2018-09-03T09:46:52.932Z,11.33
2018-09-03T09:49:22.095Z,11.80
2018-09-03T09:51:51.276Z,11.30
2018-09-03T09:54:20.088Z,12.00
2018-09-03T09:56:49.467Z,11.07
2018-09-03T09:59:18.558Z,10.57
2018-09-03T10:01:47.440Z,12.20
2018-09-03T10:04:17.185Z,11.67
2018-09-03T10:06:45.978Z,11.50
2018-09-03T10:09:14.915Z,11.50
2018-09-03T10:11:44.024Z,11.00
2018-09-03T10:14:12.924Z,12.67
2018-09-03T10:16:42.209Z,11.37
2018-09-03T10:19:14.188Z,12.77
2018-09-03T10:21:43.073Z,12.30
2018-09-03T10:24:19.163Z,12.00
2018-09-03T10:26:48.225Z,11.60
2018-09-03T10:29:17.532Z,11.30
2018-09-03T10:31:46.672Z,10.87
2018-09-03T10:34:15.519Z,11.60
2018-09-03T10:36:44.413Z,11.90
2018-09-03T10:39:13.505Z,11.73
2018-09-03T10:41:42.247Z,10.73
2018-09-03T10:44:11.076Z,11.83
2018-09-03T10:46:40.216Z,12.60
2018-09-03T10:49:09.350Z,11.07
2018-09-03T10:51:38.778Z,12.83
2018-09-03T10:54:13.738Z,10.87
2018-09-03T10:56:42.602Z,11.23
2018-09-03T10:59:11.427Z,12.00
2018-09-03T11:01:40.410Z,12.20
2018-09-03T11:04:09.462Z,11.90
2018-09-03T11:06:38.556Z,11.53
2018-09-03T11:09:09.732Z,10.00
2018-09-03T11:11:38.597Z,10.20
2018-09-03T11:14:08.152Z,9.57
2018-09-03T11:16:37.401Z,9.10
2018-09-03T11:19:06.713Z,9.37
2018-09-03T11:21:35.996Z,8.60
2018-09-03T11:24:04.705Z,8.90
2018-09-03T11:26:33.793Z,8.17
2018-09-03T11:29:02.893Z,7.97
2018-09-03T11:31:32.177Z,7.60
2018-09-03T11:34:00.984Z,7.90
2018-09-03T11:36:29.871Z,7.70
2018-09-03T11:38:58.731Z,7.40
2018-09-03T11:41:27.839Z,7.63
2018-09-03T11:43:56.747Z,7.30
2018-09-03T11:46:25.620Z,7.73
2018-09-03T11:48:54.544Z,6.90
2018-09-03T11:51:23.826Z,7.77
2018-09-03T11:53:52.716Z,6.80
2018-09-03T11:56:22.020Z,7.97
2018-09-03T11:58:50.903Z,6.87
2018-09-03T12:01:19.800Z,7.20
2018-09-03T12:03:48.872Z,6.63
2018-09-03T12:06:17.986Z,6.77
2018-09-03T12:08:46.875Z,6.80
2018-09-03T12:11:17.070Z,6.70
2018-09-03T12:13:45.896Z,6.70
2018-09-03T12:16:17.006Z,6.50
2018-09-03T12:18:46.129Z,6.70
2018-09-03T12:21:15.652Z,6.67
2018-09-03T12:23:45.031Z,6.80
2018-09-03T12:26:13.926Z,7.23
2018-09-03T12:28:43.025Z,7.03
2018-09-03T12:31:12.392Z,6.93
2018-09-03T12:33:41.213Z,6.90
2018-09-03T12:36:10.420Z,7.10
2018-09-03T12:38:39.289Z,6.17
2018-09-03T12:41:08.612Z,7.23
2018-09-03T12:43:37.999Z,6.10
2018-09-03T12:46:08.336Z,6.90
2018-09-03T12:48:37.640Z,6.37
2018-09-03T12:51:07.363Z,6.70
2018-09-03T12:53:36.121Z,6.50
2018-09-03T12:56:05.478Z,6.20
2018-09-03T12:58:34.653Z,7.10
2018-09-03T13:01:03.824Z,5.70
2018-09-03T13:03:32.892Z,6.23
2018-09-03T13:06:01.798Z,6.20
2018-09-03T13:08:30.696Z,6.10
2018-09-03T13:10:59.794Z,5.93
2018-09-03T13:13:28.683Z,6.33
2018-09-03T13:15:57.991Z,5.60
2018-09-03T13:18:26.876Z,6.20
2018-09-03T13:20:55.828Z,5.83
2018-09-03T13:23:25.341Z,6.20
2018-09-03T13:25:54.222Z,6.17
2018-09-03T13:28:23.157Z,6.30
2018-09-03T13:30:52.262Z,7.40
2018-09-03T13:33:21.145Z,6.57
2018-09-03T13:35:50.028Z,7.40
2018-09-03T13:38:18.919Z,7.07
2018-09-03T13:40:48.017Z,6.60
2018-09-03T13:43:16.999Z,7.60
2018-09-03T13:45:46.107Z,6.80
2018-09-03T13:48:15.050Z,6.83
2018-09-03T13:50:43.883Z,7.20
2018-09-03T13:53:12.983Z,6.87
2018-09-03T13:55:41.864Z,6.97
2018-09-03T13:58:10.958Z,6.90
2018-09-03T14:00:40.055Z,7.13
2018-09-03T14:03:09.358Z,7.50
2018-09-03T14:05:39.099Z,6.53
2018-09-03T14:08:08.546Z,7.63
2018-09-03T14:10:37.437Z,7.40
2018-09-03T14:13:06.355Z,7.30
2018-09-03T14:15:35.271Z,7.77
2018-09-03T14:18:04.632Z,6.60
2018-09-03T14:20:34.226Z,7.47
2018-09-03T14:23:03.356Z,8.10
2018-09-03T14:25:32.237Z,7.97
2018-09-03T14:28:01.528Z,8.40
2018-09-03T14:30:30.848Z,8.30
2018-09-03T14:33:00.154Z,8.77
2018-09-03T14:35:30.109Z,9.47
2018-09-03T14:37:59.161Z,8.93
2018-09-03T14:40:28.873Z,9.73
2018-09-03T14:42:58.227Z,10.70
2018-09-03T14:45:27.438Z,10.80
2018-09-03T14:47:56.973Z,10.10
2018-09-03T14:50:26.146Z,17.30
2018-09-03T14:52:55.315Z,10.80
2018-09-03T14:55:24.569Z,16.90
2018-09-03T14:57:53.660Z,11.37
2018-09-03T15:00:22.402Z,11.60
2018-09-03T15:02:51.652Z,11.50
2018-09-03T15:05:20.720Z,11.30
2018-09-03T15:07:49.630Z,10.53
2018-09-03T15:10:18.688Z,10.13
2018-09-03T15:12:47.829Z,11.50
2018-09-03T15:15:17.112Z,11.13
2018-09-03T15:17:46.016Z,10.80
2018-09-03T15:20:15.095Z,11.10
2018-09-03T15:22:44.767Z,11.10
2018-09-03T15:25:14.580Z,12.60
2018-09-03T15:27:45.249Z,12.40
2018-09-03T15:30:14.137Z,10.60
2018-09-03T15:32:44.953Z,11.30
2018-09-03T15:35:14.548Z,13.77
2018-09-03T15:37:43.485Z,10.40
2018-09-03T15:40:12.631Z,11.70
2018-09-03T15:42:42.279Z,11.37
2018-09-03T15:45:14.057Z,9.67
2018-09-03T15:47:44.569Z,10.20
2018-09-03T15:50:14.086Z,10.30
2018-09-03T15:52:44.002Z,9.83
2018-09-03T15:55:13.097Z,9.97
2018-09-03T15:57:42.193Z,10.37
2018-09-03T16:00:11.497Z,11.30
2018-09-03T16:02:40.321Z,10.10
2018-09-03T16:05:09.543Z,11.07
2018-09-03T16:07:38.556Z,10.43
2018-09-03T16:10:07.469Z,10.47
2018-09-03T16:12:36.945Z,10.10
2018-09-03T16:15:06.505Z,10.73
2018-09-03T16:17:35.561Z,9.87
2018-09-03T16:20:04.720Z,10.30
2018-09-03T16:22:34.158Z,10.53
2018-09-03T16:25:03.059Z,10.20
2018-09-03T16:27:32.734Z,10.00
2018-09-03T16:30:01.669Z,9.40
2018-09-03T16:32:31.141Z,9.77
2018-09-03T16:35:00.278Z,10.13
2018-09-03T16:37:29.754Z,9.63
2018-09-03T16:39:59.969Z,9.93
2018-09-03T16:42:28.974Z,9.80
2018-09-03T16:44:57.874Z,11.13
2018-09-03T16:47:27.259Z,11.43
2018-09-03T16:49:56.289Z,10.47
2018-09-03T16:52:25.326Z,11.20
2018-09-03T16:54:57.015Z,11.70
2018-09-03T16:57:33.796Z,10.23
2018-09-03T17:00:03.535Z,11.23
2018-09-03T17:02:33.015Z,11.17
2018-09-03T17:05:02.301Z,11.17
2018-09-03T17:07:33.111Z,11.03
2018-09-03T17:10:02.752Z,10.80
2018-09-03T17:12:33.077Z,11.17
2018-09-03T17:15:02.226Z,10.80
2018-09-03T17:17:31.241Z,11.30
2018-09-03T17:20:00.560Z,13.47
2018-09-03T17:22:29.784Z,11.63
2018-09-03T17:24:58.967Z,11.87
2018-09-03T17:27:28.334Z,11.17
2018-09-03T17:29:57.436Z,11.37
2018-09-03T17:32:26.252Z,10.60
2018-09-03T17:34:55.145Z,12.77
2018-09-03T17:37:24.080Z,13.00
2018-09-03T17:39:53.744Z,11.43
2018-09-03T17:42:22.633Z,13.23
2018-09-03T17:44:54.042Z,11.80
2018-09-03T17:47:25.334Z,12.10
2018-09-03T17:49:55.251Z,12.30
2018-09-03T17:52:24.248Z,11.37
2018-09-03T17:54:53.228Z,11.03
2018-09-03T17:57:22.325Z,15.37
2018-09-03T17:59:52.025Z,13.67
2018-09-03T18:02:22.341Z,11.73
2018-09-03T18:04:52.995Z,11.87
2018-09-03T18:07:21.980Z,11.43
2018-09-03T18:09:51.066Z,10.57
2018-09-03T18:12:20.072Z,10.50
2018-09-03T18:14:49.419Z,9.27
2018-09-03T18:17:19.199Z,8.47
2018-09-03T18:19:48.752Z,9.10
2018-09-03T18:22:17.787Z,8.90
2018-09-03T18:24:49.355Z,9.60
2018-09-03T18:27:19.121Z,8.40
2018-09-03T18:29:49.017Z,7.70
2018-09-03T18:32:18.156Z,7.93
2018-09-03T18:34:47.325Z,7.77
2018-09-03T18:37:16.559Z,8.10
2018-09-03T18:39:45.630Z,7.10
2018-09-03T18:42:14.742Z,8.43
2018-09-03T18:44:44.366Z,8.67
2018-09-03T18:47:13.555Z,7.70
2018-09-03T18:49:43.094Z,8.30
2018-09-03T18:52:12.807Z,7.80
2018-09-03T18:54:42.626Z,8.73
2018-09-03T18:57:11.948Z,8.20
2018-09-03T18:59:41.912Z,8.70
2018-09-03T19:02:11.221Z,8.30
2018-09-03T19:04:40.731Z,9.13
2018-09-03T19:07:10.413Z,8.50
2018-09-03T19:09:39.811Z,9.43
2018-09-03T19:12:09.396Z,7.93
2018-09-03T19:14:39.644Z,8.50
2018-09-03T19:17:09.269Z,7.90
2018-09-03T19:19:39.034Z,9.10
2018-09-03T19:22:08.511Z,7.77
2018-09-03T19:24:38.426Z,9.33
2018-09-03T19:27:08.535Z,8.10
2018-09-03T19:29:37.611Z,7.73
2018-09-03T19:32:06.990Z,9.20
2018-09-03T19:34:36.594Z,8.80
2018-09-03T19:37:05.985Z,8.70
2018-09-03T19:39:35.255Z,9.13
2018-09-03T19:42:04.686Z,9.00
2018-09-03T19:44:33.810Z,8.50
2018-09-03T19:47:02.892Z,8.63
2018-09-03T19:49:32.762Z,8.07
2018-09-03T19:52:02.846Z,8.80
2018-09-03T19:54:34.666Z,8.83
2018-09-03T19:57:05.089Z,8.97
2018-09-03T19:59:34.109Z,8.33
2018-09-03T20:02:03.895Z,8.77
2018-09-03T20:04:33.515Z,9.53
2018-09-03T20:07:02.805Z,9.47
2018-09-03T20:09:32.067Z,8.93
2018-09-03T20:12:01.094Z,9.10
2018-09-03T20:14:31.211Z,8.30
2018-09-03T20:17:00.982Z,8.83
2018-09-03T20:19:31.044Z,8.30
2018-09-03T20:22:00.725Z,8.67
2018-09-03T20:24:30.089Z,9.63
2018-09-03T20:26:59.184Z,9.90
2018-09-03T20:29:28.329Z,8.70
2018-09-03T20:31:57.565Z,9.10
2018-09-03T20:34:26.674Z,8.90
2018-09-03T20:36:56.181Z,9.20
2018-09-03T20:39:25.015Z,8.90
2018-09-03T20:41:54.147Z,8.97
2018-09-03T20:44:24.081Z,8.70
2018-09-03T20:46:52.971Z,9.37
2018-09-03T20:49:22.053Z,9.53
2018-09-03T20:51:52.053Z,8.47
2018-09-03T20:54:21.280Z,9.00
2018-09-03T20:56:50.416Z,9.60
2018-09-03T20:59:20.209Z,9.53
2018-09-03T21:01:49.068Z,10.43
2018-09-03T21:04:18.235Z,9.27
2018-09-03T21:06:47.602Z,9.50
2018-09-03T21:09:16.432Z,9.30
2018-09-03T21:11:45.255Z,9.67
2018-09-03T21:14:14.540Z,9.50
2018-09-03T21:16:43.858Z,10.50
2018-09-03T21:19:13.127Z,9.73
2018-09-03T21:21:42.242Z,10.10
2018-09-03T21:24:11.453Z,9.47
2018-09-03T21:26:40.922Z,9.70
2018-09-03T21:29:09.849Z,9.07
2018-09-03T21:31:38.726Z,9.63
2018-09-03T21:34:07.773Z,9.60
2018-09-03T21:36:37.037Z,9.80
2018-09-03T21:39:06.770Z,9.43
2018-09-03T21:41:35.729Z,10.43
2018-09-03T21:44:05.031Z,10.70
2018-09-03T21:46:34.307Z,9.33
2018-09-03T21:49:03.218Z,10.67
2018-09-03T21:51:32.323Z,11.03
2018-09-03T21:54:01.216Z,9.60
2018-09-03T21:56:30.730Z,9.70
2018-09-03T21:59:00.553Z,10.10
2018-09-03T22:01:29.522Z,9.90
2018-09-03T22:03:58.410Z,10.83
2018-09-03T22:06:27.620Z,10.10
2018-09-03T22:08:56.373Z,9.57
2018-09-03T22:11:25.553Z,10.60
2018-09-03T22:13:54.604Z,10.30
2018-09-03T22:16:23.938Z,9.70
2018-09-03T22:18:52.768Z,10.30
2018-09-03T22:21:21.677Z,10.00
2018-09-03T22:23:50.971Z,9.97
2018-09-03T22:26:20.316Z,9.50
2018-09-03T22:28:49.359Z,9.90
2018-09-03T22:31:18.456Z,10.80
2018-09-03T22:33:47.399Z,9.93
2018-09-03T22:36:16.349Z,9.80
2018-09-03T22:38:45.637Z,10.03
2018-09-03T22:41:14.733Z,10.03
2018-09-03T22:43:43.795Z,10.50
2018-09-03T22:46:13.100Z,10.63
2018-09-03T22:48:41.790Z,10.00
2018-09-03T22:51:10.713Z,9.90
2018-09-03T22:53:39.696Z,9.93
2018-09-03T22:56:08.663Z,10.27
2018-09-03T22:58:37.710Z,10.70
2018-09-03T23:01:06.415Z,10.43
2018-09-03T23:03:35.184Z,9.43
2018-09-03T23:06:04.163Z,9.77
2018-09-03T23:08:32.952Z,9.77
2018-09-03T23:11:01.737Z,9.27
2018-09-03T23:13:31.191Z,9.50
2018-09-03T23:16:00.490Z,9.33
2018-09-03T23:18:29.605Z,9.60
2018-09-03T23:20:58.730Z,9.40
2018-09-03T23:23:27.434Z,9.43
2018-09-03T23:25:56.515Z,8.73
2018-09-03T23:28:26.014Z,9.70
2018-09-03T23:30:55.724Z,9.40
2018-09-03T23:33:25.153Z,9.70
2018-09-03T23:35:54.065Z,9.50
2018-09-03T23:38:23.012Z,9.73
2018-09-03T23:40:52.107Z,9.20
2018-09-03T23:43:21.207Z,9.80
2018-09-03T23:45:50.298Z,9.30
2018-09-03T23:48:19.502Z,9.43
2018-09-03T23:50:48.377Z,9.30
2018-09-03T23:53:17.101Z,9.10
2018-09-03T23:55:46.569Z,10.37
2018-09-03T23:58:15.383Z,10.23
